Time;durP1;ratioP1;P1;durP2;ratioP2;P2;SDS_P1;SDS_P2;PMS_P1;PMS_P2;Temp;Humidity;BMP_temperature;BMP_pressure;BME280_temperature;BME280_humidity;BME280_pressure;Samples;Min_cycle;Max_cycle;Signal;HPM_P1;HPM_P2
2021/09/17 00:02:04;;;;;;;13.37;9.33;;;;;;;13.29;71.82;100561.96;1758151;80;21222;-68
2021/09/17 00:04:31;;;;;;;13.87;9.37;;;;;;;13.26;71.77;100552.61;1744810;80;21236;-69
2021/09/17 00:06:58;;;;;;;13.67;9.00;;;;;;;13.25;71.69;100553.66;1736668;80;21662;-69
2021/09/17 00:09:25;;;;;;;13.80;9.30;;;;;;;13.20;71.71;100544.28;1742740;80;21591;-69
2021/09/17 00:11:54;;;;;;;15.63;8.60;;;;;;;13.17;71.75;100554.22;1742884;81;21328;-68
2021/09/17 00:14:22;;;;;;;14.60;8.97;;;;;;;13.15;71.86;100552.33;1730544;80;21137;-68
2021/09/17 00:16:49;;;;;;;14.87;9.10;;;;;;;13.14;71.95;100549.40;1739914;81;21310;-69
2021/09/17 00:19:18;;;;;;;14.07;9.00;;;;;;;13.14;72.07;100537.33;1734010;81;21257;-69
2021/09/17 00:21:45;;;;;;;16.20;9.00;;;;;;;13.12;72.14;100540.81;1748341;80;21193;-69
2021/09/17 00:24:14;;;;;;;17.40;8.90;;;;;;;13.11;72.25;100543.23;1752522;80;21379;-68
2021/09/17 00:26:42;;;;;;;15.93;8.80;;;;;;;13.11;72.20;100540.56;1737970;80;21320;-68
2021/09/17 00:29:11;;;;;;;15.83;8.90;;;;;;;13.12;72.17;100532.77;1738289;80;21366;-68
2021/09/17 00:31:37;;;;;;;13.37;8.50;;;;;;;13.14;72.10;100533.31;1745735;81;21335;-68
2021/09/17 00:34:05;;;;;;;17.23;9.23;;;;;;;13.16;71.99;100533.81;1736625;81;21755;-69
2021/09/17 00:36:32;;;;;;;14.60;8.97;;;;;;;13.18;71.93;100531.67;1759709;80;22727;-69
2021/09/17 00:38:59;;;;;;;15.37;8.50;;;;;;;13.20;71.83;100522.83;1760493;80;21224;-68
2021/09/17 00:41:26;;;;;;;13.70;8.17;;;;;;;13.23;71.78;100530.87;1759546;80;21219;-68
2021/09/17 00:43:54;;;;;;;15.73;8.90;;;;;;;13.24;71.70;100523.91;1730008;80;22005;-70
2021/09/17 00:46:21;;;;;;;15.80;8.47;;;;;;;13.23;71.52;100519.59;1737355;80;21315;-68
2021/09/17 00:48:48;;;;;;;14.47;8.20;;;;;;;13.25;71.46;100521.48;1758459;80;21280;-68
2021/09/17 00:51:15;;;;;;;15.13;8.33;;;;;;;13.24;71.47;100514.52;1750031;80;21286;-68
2021/09/17 00:53:42;;;;;;;14.83;8.47;;;;;;;13.24;71.42;100511.84;1752071;80;21595;-69
2021/09/17 00:56:11;;;;;;;16.10;8.73;;;;;;;13.25;71.48;100516.11;1750737;80;21287;-69
2021/09/17 00:58:38;;;;;;;13.33;8.13;;;;;;;13.25;71.64;100505.38;1740497;81;21350;-69
2021/09/17 01:01:05;;;;;;;15.73;8.40;;;;;;;13.20;71.86;100504.05;1748295;80;21242;-69
2021/09/17 01:03:33;;;;;;;13.23;7.93;;;;;;;13.14;72.09;100503.27;1751934;81;21826;-69
2021/09/17 01:06:02;;;;;;;14.53;8.07;;;;;;;13.11;72.20;100502.47;1735138;81;21305;-69
2021/09/17 01:08:30;;;;;;;12.73;7.87;;;;;;;13.12;72.38;100500.05;1750963;80;21306;-69
2021/09/17 01:10:59;;;;;;;10.57;7.73;;;;;;;13.16;72.48;100497.61;1746037;81;21195;-69
2021/09/17 01:13:27;;;;;;;10.80;7.40;;;;;;;13.18;72.48;100492.78;1746742;80;21325;-69
2021/09/17 01:15:55;;;;;;;11.57;8.20;;;;;;;13.21;72.46;100491.44;1736974;80;21324;-69
2021/09/17 01:18:24;;;;;;;12.77;7.67;;;;;;;13.23;72.43;100493.32;1738247;80;21299;-70
2021/09/17 01:20:57;;;;;;;13.40;7.97;;;;;;;13.25;72.41;100487.16;1752509;80;21170;-68
2021/09/17 01:23:25;;;;;;;12.30;8.00;;;;;;;13.27;72.30;100477.76;1749346;80;21579;-69
2021/09/17 01:25:52;;;;;;;12.03;7.37;;;;;;;13.31;72.14;100476.66;1744004;81;21925;-69
2021/09/17 01:28:29;;;;;;;12.23;7.83;;;;;;;13.38;71.74;100472.59;1743468;81;21485;-69
2021/09/17 01:30:58;;;;;;;12.27;7.97;;;;;;;13.42;71.48;100468.01;1762465;80;21638;-69
2021/09/17 01:33:27;;;;;;;11.37;7.77;;;;;;;13.41;71.19;100469.09;1740487;80;21863;-69
2021/09/17 01:36:03;;;;;;;14.50;7.87;;;;;;;13.43;71.01;100466.41;1736699;81;21262;-69
2021/09/17 01:38:31;;;;;;;11.97;7.70;;;;;;;13.47;70.82;100467.45;1742319;80;21283;-69
2021/09/17 01:40:58;;;;;;;11.50;7.37;;;;;;;13.52;70.37;100464.74;1749995;80;22014;-69
2021/09/17 01:43:27;;;;;;;12.40;7.33;;;;;;;13.57;69.94;100465.23;1752438;80;21802;-68
2021/09/17 01:45:55;;;;;;;11.07;7.30;;;;;;;13.61;69.51;100460.36;1751090;81;21260;-68
2021/09/17 01:48:24;;;;;;;12.07;7.80;;;;;;;13.69;69.09;100460.84;1736774;80;21240;-69
2021/09/17 01:50:53;;;;;;;11.73;7.53;;;;;;;13.72;68.81;100457.60;1761748;80;21323;-68
2021/09/17 01:53:21;;;;;;;10.77;6.67;;;;;;;13.74;68.67;100454.91;1783875;80;21916;-68
2021/09/17 01:55:48;;;;;;;14.17;7.27;;;;;;;13.74;68.73;100452.22;1723852;80;21229;-68
2021/09/17 01:58:15;;;;;;;10.97;6.83;;;;;;;13.70;68.83;100445.02;1758325;80;21226;-69
2021/09/17 02:00:42;;;;;;;11.00;7.30;;;;;;;13.64;68.94;100433.52;1750749;80;21223;-68
2021/09/17 02:03:10;;;;;;;10.60;7.00;;;;;;;13.60;69.00;100435.16;1759850;80;21215;-68
2021/09/17 02:05:37;;;;;;;11.47;7.53;;;;;;;13.57;69.23;100429.80;1743455;80;21269;-68
2021/09/17 02:08:04;;;;;;;12.57;7.73;;;;;;;13.56;69.27;100427.41;1724049;80;21381;-68
2021/09/17 02:10:32;;;;;;;12.40;7.83;;;;;;;13.54;69.29;100426.88;1758401;80;21245;-68
2021/09/17 02:12:59;;;;;;;13.60;7.73;;;;;;;13.56;68.78;100426.08;1752064;81;21280;-68
2021/09/17 02:15:26;;;;;;;9.47;6.70;;;;;;;13.56;68.78;100426.08;1731182;80;21413;-68
2021/09/17 02:17:53;;;;;;;12.17;7.13;;;;;;;13.58;69.39;100422.00;1766363;80;21203;-69
2021/09/17 02:20:20;;;;;;;11.33;7.43;;;;;;;13.58;69.37;100417.98;1753133;80;21271;-69
2021/09/17 02:22:49;;;;;;;10.07;6.93;;;;;;;13.59;69.49;100420.16;1753319;80;21895;-68
2021/09/17 02:25:16;;;;;;;12.10;7.00;;;;;;;13.59;69.69;100416.13;1727466;80;21215;-69
2021/09/17 02:27:44;;;;;;;10.60;6.87;;;;;;;13.57;69.99;100411.02;1746902;80;21339;-69
2021/09/17 02:30:14;;;;;;;12.47;7.57;;;;;;;13.54;69.98;100413.47;1746382;81;21292;-69
2021/09/17 02:32:41;;;;;;;12.63;7.27;;;;;;;13.52;69.98;100408.91;1732682;80;21426;-69
2021/09/17 02:35:09;;;;;;;11.73;7.50;;;;;;;13.54;69.83;100409.44;1749908;81;21346;-68
2021/09/17 02:37:37;;;;;;;14.60;7.70;;;;;;;13.55;69.87;100403.78;1768494;80;21447;-69
2021/09/17 02:40:05;;;;;;;12.17;7.60;;;;;;;13.59;69.60;100390.63;1767227;80;21354;-68
2021/09/17 02:42:34;;;;;;;11.00;7.57;;;;;;;13.59;69.55;100390.63;1748043;80;22688;-68
2021/09/17 02:45:01;;;;;;;11.47;7.40;;;;;;;13.60;69.35;100386.86;1740244;80;21688;-68
2021/09/17 02:47:28;;;;;;;11.50;7.37;;;;;;;13.63;69.55;100380.13;1742895;80;21252;-69
2021/09/17 02:49:57;;;;;;;10.27;7.07;;;;;;;13.60;69.30;100376.92;1752571;81;21484;-69
2021/09/17 02:52:25;;;;;;;11.07;6.87;;;;;;;13.63;69.02;100379.59;1747104;80;21394;-68
2021/09/17 02:54:52;;;;;;;10.43;7.33;;;;;;;13.64;68.71;100377.16;1745641;81;21792;-69
2021/09/17 02:57:21;;;;;;;12.13;7.70;;;;;;;13.64;68.32;100378.49;1756089;80;21239;-69
2021/09/17 02:59:51;;;;;;;11.43;7.70;;;;;;;13.63;68.06;100373.42;1746081;80;21164;-68
2021/09/17 03:02:18;;;;;;;11.80;6.93;;;;;;;13.59;67.68;100371.30;1765614;80;21285;-69
2021/09/17 03:04:45;;;;;;;10.83;7.03;;;;;;;13.59;67.57;100366.48;1747310;81;21301;-68
2021/09/17 03:07:12;;;;;;;11.73;7.27;;;;;;;13.63;67.33;100369.40;1741995;80;21234;-69
2021/09/17 03:09:39;;;;;;;13.50;7.40;;;;;;;13.62;67.17;100365.89;1761274;80;21169;-69
2021/09/17 03:12:07;;;;;;;11.60;6.93;;;;;;;13.65;67.05;100357.27;1743672;80;21645;-69
2021/09/17 03:14:34;;;;;;;12.23;7.50;;;;;;;13.66;66.97;100351.39;1725972;81;21716;-69
2021/09/17 03:17:02;;;;;;;12.63;7.70;;;;;;;13.66;66.85;100346.82;1751768;80;21276;-69
2021/09/17 03:19:29;;;;;;;12.13;7.37;;;;;;;13.66;66.77;100350.05;1765652;80;21809;-69
2021/09/17 03:21:59;;;;;;;11.67;7.23;;;;;;;13.67;66.67;100352.98;1766342;80;21273;-69
2021/09/17 03:24:25;;;;;;;12.63;7.53;;;;;;;13.67;66.49;100351.09;1733988;81;21292;-69
2021/09/17 03:26:54;;;;;;;11.13;7.37;;;;;;;13.69;66.48;100358.34;1717431;81;21303;-70
2021/09/17 03:29:21;;;;;;;11.10;7.00;;;;;;;13.74;66.34;100359.61;1720488;83;21302;-69
2021/09/17 03:31:48;;;;;;;13.30;7.13;;;;;;;13.79;66.32;100355.55;1733946;80;21191;-68
2021/09/17 03:34:15;;;;;;;9.93;6.93;;;;;;;13.83;66.15;100357.12;1728074;81;21377;-69
2021/09/17 03:36:42;;;;;;;11.27;6.87;;;;;;;13.85;66.35;100360.31;1742880;80;21175;-67
2021/09/17 03:39:11;;;;;;;15.00;7.30;;;;;;;13.86;66.46;100350.40;1755750;80;21274;-69
2021/09/17 03:41:40;;;;;;;11.40;7.20;;;;;;;13.87;66.43;100347.96;1752783;81;21269;-68
2021/09/17 03:44:07;;;;;;;12.13;7.30;;;;;;;13.88;66.39;100344.98;1741287;80;21277;-68
2021/09/17 03:46:34;;;;;;;12.37;6.60;;;;;;;13.90;66.23;100337.45;1749603;80;21247;-69
2021/09/17 03:49:01;;;;;;;10.73;6.50;;;;;;;13.93;66.05;100332.06;1748140;82;21524;-69
2021/09/17 03:51:28;;;;;;;9.57;6.47;;;;;;;13.96;66.18;100334.98;1728764;80;21342;-69
2021/09/17 03:53:55;;;;;;;11.50;6.60;;;;;;;13.97;66.14;100334.44;1744653;80;21199;-68
2021/09/17 03:56:22;;;;;;;12.27;6.60;;;;;;;14.00;65.91;100339.23;1751280;80;21348;-68
2021/09/17 03:58:49;;;;;;;11.57;6.90;;;;;;;14.04;65.62;100334.34;1759256;80;21265;-68
2021/09/17 04:01:16;;;;;;;13.20;6.77;;;;;;;14.10;65.35;100329.72;1746563;80;21255;-68
2021/09/17 04:03:43;;;;;;;9.47;5.93;;;;;;;14.16;65.13;100319.18;1739129;81;21742;-68
2021/09/17 04:06:11;;;;;;;11.50;6.47;;;;;;;14.22;65.18;100318.04;1733424;80;21447;-70
2021/09/17 04:08:38;;;;;;;12.03;6.83;;;;;;;14.28;65.06;100316.07;1726293;81;21390;-67
2021/09/17 04:11:07;;;;;;;9.93;5.90;;;;;;;14.33;64.79;100323.29;1745363;80;21974;-69
2021/09/17 04:13:35;;;;;;;9.57;5.87;;;;;;;14.44;63.74;100312.11;1750549;80;21345;-69
2021/09/17 04:16:04;;;;;;;10.00;5.90;;;;;;;14.52;64.14;100310.72;1759340;80;21331;-69
2021/09/17 04:18:31;;;;;;;9.43;5.70;;;;;;;14.53;64.27;100307.72;1750495;80;21381;-69
2021/09/17 04:20:59;;;;;;;9.13;5.30;;;;;;;14.58;63.71;100296.12;1761669;80;21513;-69
2021/09/17 04:23:26;;;;;;;9.47;5.67;;;;;;;14.58;63.71;100296.12;1755316;80;21581;-69
2021/09/17 04:25:53;;;;;;;10.43;5.53;;;;;;;14.67;63.79;100287.64;1763569;80;21612;-69
2021/09/17 04:28:20;;;;;;;9.00;5.57;;;;;;;14.67;63.79;100287.64;1750190;81;21475;-69
2021/09/17 04:30:47;;;;;;;11.13;5.90;;;;;;;14.77;62.62;100282.14;1741808;80;21652;-69
2021/09/17 04:33:16;;;;;;;10.23;5.33;;;;;;;14.77;62.62;100282.14;1740744;80;21457;-69
2021/09/17 04:35:43;;;;;;;10.03;5.10;;;;;;;14.83;62.04;100288.77;1751763;81;21647;-69
2021/09/17 04:38:14;;;;;;;9.30;5.27;;;;;;;14.87;61.57;100278.51;1747583;80;21902;-68
2021/09/17 04:40:42;;;;;;;10.43;5.07;;;;;;;14.93;61.24;100268.45;1737559;80;21431;-69
2021/09/17 04:43:10;;;;;;;10.10;5.23;;;;;;;14.97;60.61;100275.66;1760920;80;22234;-69
2021/09/17 04:45:37;;;;;;;8.77;5.03;;;;;;;15.04;60.62;100282.01;1752852;80;22183;-69
2021/09/17 04:48:10;;;;;;;10.00;4.60;;;;;;;15.08;60.40;100277.63;1742368;80;21789;-69
2021/09/17 04:50:37;;;;;;;8.17;4.87;;;;;;;15.12;60.30;100269.22;1743138;81;22738;-69
2021/09/17 04:53:05;;;;;;;9.63;5.33;;;;;;;15.17;59.89;100277.22;1740518;80;21771;-69
2021/09/17 04:55:32;;;;;;;10.00;4.63;;;;;;;15.21;59.72;100277.43;1751264;81;21771;-69
2021/09/17 04:58:07;;;;;;;8.27;4.53;;;;;;;15.25;59.71;100277.87;1746497;80;22282;-69
2021/09/17 05:00:36;;;;;;;12.53;5.00;;;;;;;15.31;59.59;100272.42;1752925;80;21776;-70
2021/09/17 05:03:03;;;;;;;11.23;4.57;;;;;;;15.38;59.51;100272.28;1757577;80;21776;-69
2021/09/17 05:05:31;;;;;;;13.13;5.07;;;;;;;15.44;59.22;100271.11;1768188;80;21728;-69
2021/09/17 05:07:59;;;;;;;8.73;5.27;;;;;;;15.52;59.42;100260.74;1762644;80;21769;-69
2021/09/17 05:10:28;;;;;;;8.67;4.70;;;;;;;15.60;59.35;100258.73;1737886;80;22263;-68
2021/09/17 05:12:55;;;;;;;8.00;5.00;;;;;;;15.68;59.27;100263.44;1748462;80;21725;-69
2021/09/17 05:15:23;;;;;;;11.53;5.20;;;;;;;15.77;59.02;100247.40;1753268;80;22225;-68
2021/09/17 05:17:52;;;;;;;11.03;5.00;;;;;;;15.87;58.64;100250.68;1750833;80;22221;-69
2021/09/17 05:20:20;;;;;;;9.20;4.97;;;;;;;15.95;58.33;100252.66;1749257;80;22253;-69
2021/09/17 05:22:52;;;;;;;10.77;5.30;;;;;;;16.04;57.92;100246.03;1754486;80;21783;-68
2021/09/17 05:25:20;;;;;;;10.28;5.20;;;;;;;16.13;57.57;100246.92;1744985;80;22225;-69
2021/09/17 05:27:49;;;;;;;11.17;5.43;;;;;;;16.24;57.38;100250.20;1751012;80;21050;-68
2021/09/17 05:30:18;;;;;;;8.23;5.27;;;;;;;16.33;57.24;100244.90;1753033;80;21114;-68
2021/09/17 05:32:47;;;;;;;12.47;5.77;;;;;;;16.43;56.93;100238.48;1755091;80;21729;-68
2021/09/17 05:35:18;;;;;;;10.20;5.60;;;;;;;16.51;56.67;100235.06;1740532;81;21752;-69
2021/09/17 05:37:45;;;;;;;9.83;6.03;;;;;;;16.57;56.56;100230.59;1735700;80;21625;-68
2021/09/17 05:40:14;;;;;;;8.67;5.13;;;;;;;16.68;56.13;100222.27;1751168;80;21813;-68
2021/09/17 05:42:42;;;;;;;9.77;5.47;;;;;;;16.75;55.96;100222.66;1748891;80;21039;-68
2021/09/17 05:45:12;;;;;;;12.73;6.03;;;;;;;16.80;55.97;100220.65;1753784;80;21264;-68
2021/09/17 05:47:44;;;;;;;10.07;5.57;;;;;;;16.84;55.83;100210.83;1751361;80;21086;-68
2021/09/17 05:50:16;;;;;;;10.03;5.80;;;;;;;16.91;55.76;100212.30;1775961;80;21077;-69
2021/09/17 05:52:49;;;;;;;9.83;4.80;;;;;;;16.94;55.52;100209.79;1745691;80;21086;-68
2021/09/17 05:55:26;;;;;;;9.57;5.47;;;;;;;16.96;55.52;100200.84;1746282;81;20915;-70
2021/09/17 05:57:51;;;;;;;13.60;5.73;;;;;;;17.00;55.65;100207.21;1749232;80;21629;-69
2021/09/17 06:00:23;;;;;;;8.80;5.50;;;;;;;17.07;55.64;100206.22;1748845;80;21059;-68
2021/09/17 06:03:03;;;;;;;10.50;5.17;;;;;;;17.15;55.76;100202.00;1742886;81;21130;-68
2021/09/17 06:05:32;;;;;;;10.87;5.33;;;;;;;17.25;55.72;100197.68;1752614;80;21516;-68
2021/09/17 06:08:06;;;;;;;7.43;5.03;;;;;;;17.35;55.79;100195.27;1755589;80;21529;-68
2021/09/17 06:10:34;;;;;;;8.87;5.60;;;;;;;17.48;55.94;100197.06;1762706;80;21085;-69
2021/09/17 06:13:04;;;;;;;12.90;6.00;;;;;;;17.64;55.84;100192.60;1748865;80;21358;-69
2021/09/17 06:15:33;;;;;;;8.13;5.47;;;;;;;17.82;55.38;100187.51;1752873;80;21097;-69
2021/09/17 06:18:02;;;;;;;10.10;5.90;;;;;;;17.99;54.99;100190.80;1731316;80;21349;-72
2021/09/17 06:20:32;;;;;;;9.33;5.33;;;;;;;18.16;54.94;100185.97;1744975;81;21018;-71
2021/09/17 06:23:04;;;;;;;10.55;5.58;;;;;;;18.34;54.63;100181.38;1752574;80;21014;-70
2021/09/17 06:25:34;;;;;;;12.05;6.17;;;;;;;18.48;54.26;100186.06;1753163;81;21004;-73
2021/09/17 06:28:08;;;;;;;8.77;5.80;;;;;;;18.60;54.03;100184.88;1743001;80;21044;-72
2021/09/17 06:30:46;;;;;;;11.30;6.03;;;;;;;18.69;53.82;100179.44;1742784;80;21873;-73
2021/09/17 06:33:15;;;;;;;11.93;6.00;;;;;;;18.78;53.85;100171.34;1753488;80;21078;-72
2021/09/17 06:35:53;;;;;;;10.90;6.20;;;;;;;18.84;53.99;100169.50;1760587;80;21031;-72
2021/09/17 06:38:20;;;;;;;12.47;6.60;;;;;;;18.95;53.75;100172.66;1742681;80;21080;-72
2021/09/17 06:41:01;;;;;;;10.83;5.80;;;;;;;19.05;53.77;100179.10;1745019;80;21063;-72
2021/09/17 06:43:36;;;;;;;13.20;6.50;;;;;;;19.13;53.80;100174.20;1746149;80;21215;-70
2021/09/17 06:46:25;;;;;;;10.23;5.87;;;;;;;19.21;54.01;100172.58;1748862;80;21042;-70
2021/09/17 06:48:58;;;;;;;10.40;5.70;;;;;;;19.25;53.83;100165.95;1738341;80;21078;-71
2021/09/17 06:51:43;;;;;;;12.73;5.80;;;;;;;19.27;54.07;100164.52;1739479;80;21592;-71
2021/09/17 06:54:11;;;;;;;9.63;6.00;;;;;;;19.31;54.29;100166.02;1744775;80;21015;-67
2021/09/17 06:56:57;;;;;;;10.87;5.73;;;;;;;19.34;54.36;100170.22;1758438;80;21180;-68
2021/09/17 06:59:33;;;;;;;12.13;6.57;;;;;;;19.41;54.40;100171.06;1753619;80;21046;-68
2021/09/17 07:02:18;;;;;;;12.53;5.83;;;;;;;19.48;54.75;100170.02;1741510;81;21547;-69
2021/09/17 07:04:59;;;;;;;13.03;5.47;;;;;;;19.52;54.74;100168.24;1745447;80;37776;-68
2021/09/17 07:07:41;;;;;;;11.80;6.23;;;;;;;19.60;54.95;100165.25;1751634;80;21613;-69
2021/09/17 07:10:28;;;;;;;11.43;6.17;;;;;;;19.67;55.05;100166.34;1751654;81;21984;-69
2021/09/17 07:13:05;;;;;;;11.90;6.03;;;;;;;19.76;55.27;100163.59;1752170;80;21079;-68
2021/09/17 07:15:44;;;;;;;20.00;7.57;;;;;;;19.83;55.14;100165.22;1755543;80;21371;-68
2021/09/17 07:18:28;;;;;;;13.13;6.37;;;;;;;19.92;55.53;100163.81;1751647;81;21008;-69
2021/09/17 07:34:44;;;;;;;10.80;6.27;;;;;;;21.12;54.63;100141.34;1823026;77;26828;-68
2021/09/17 07:37:11;;;;;;;13.23;5.73;;;;;;;21.14;54.51;100137.73;1796417;79;20952;-69
2021/09/17 07:39:40;;;;;;;12.57;5.57;;;;;;;21.22;54.60;100127.88;1787089;79;20915;-69
2021/09/17 07:42:08;;;;;;;12.40;6.03;;;;;;;21.31;54.13;100128.00;1785551;79;21498;-69
2021/09/17 07:44:36;;;;;;;11.70;5.60;;;;;;;21.41;53.86;100117.28;1797373;79;21446;-67
2021/09/17 07:47:05;;;;;;;7.37;5.37;;;;;;;21.48;53.25;100123.50;1786851;79;20955;-70
2021/09/17 07:49:33;;;;;;;11.53;5.60;;;;;;;21.54;53.18;100123.50;1780289;79;21039;-69
2021/09/17 07:52:00;;;;;;;10.03;5.37;;;;;;;21.58;53.13;100116.25;1787855;79;21187;-67
2021/09/17 07:54:28;;;;;;;11.43;6.10;;;;;;;21.62;52.90;100114.45;1795802;79;20892;-68
2021/09/17 07:56:55;;;;;;;14.20;6.70;;;;;;;21.67;53.02;100117.49;1786243;79;20971;-68
2021/09/17 07:59:22;;;;;;;10.90;6.43;;;;;;;21.67;52.85;100114.77;1783714;78;20999;-67
2021/09/17 08:01:49;;;;;;;13.43;7.10;;;;;;;21.68;52.87;100110.91;1808968;79;21039;-69
2021/09/17 08:04:17;;;;;;;13.27;7.30;;;;;;;21.67;53.04;100107.98;1791373;79;21514;-68
2021/09/17 08:06:43;;;;;;;14.80;7.07;;;;;;;21.67;53.23;100104.69;1799530;79;21011;-68
2021/09/17 08:09:12;;;;;;;15.47;7.37;;;;;;;21.60;53.08;100100.41;1790920;78;21031;-69
2021/09/17 08:11:39;;;;;;;15.57;7.27;;;;;;;21.56;53.35;100101.44;1784363;79;21506;-68
2021/09/17 08:14:08;;;;;;;11.47;6.97;;;;;;;21.55;53.66;100103.34;1792699;78;21019;-69
2021/09/17 08:16:35;;;;;;;14.60;7.27;;;;;;;21.52;53.73;100098.05;1795156;79;21094;-68
2021/09/17 08:19:03;;;;;;;11.00;6.90;;;;;;;21.50;53.89;100094.08;1801561;78;21033;-69
2021/09/17 08:21:32;;;;;;;13.30;7.07;;;;;;;21.47;54.08;100090.11;1793556;78;21081;-70
2021/09/17 08:24:00;;;;;;;11.00;7.07;;;;;;;21.44;54.26;100081.28;1788111;79;21572;-69
2021/09/17 08:26:27;;;;;;;12.33;6.90;;;;;;;21.43;54.06;100088.42;1794935;78;21580;-68
2021/09/17 08:28:55;;;;;;;11.17;7.27;;;;;;;21.43;54.30;100080.28;1781839;79;21182;-68
2021/09/17 08:31:22;;;;;;;11.03;6.70;;;;;;;21.44;54.49;100072.34;1793512;79;21019;-68
2021/09/17 08:33:49;;;;;;;16.03;7.80;;;;;;;21.44;54.52;100070.98;1784882;79;21027;-69
2021/09/17 08:36:18;;;;;;;11.47;7.10;;;;;;;21.40;54.70;100064.66;1783288;79;21021;-69
2021/09/17 08:38:45;;;;;;;11.37;7.00;;;;;;;21.37;54.88;100056.61;1744112;79;21062;-68
2021/09/17 08:41:14;;;;;;;13.93;7.27;;;;;;;21.37;55.13;100063.98;1790304;78;21078;-69
2021/09/17 08:43:43;;;;;;;12.67;6.90;;;;;;;21.35;55.37;100058.08;1721240;80;21050;-68
2021/09/17 08:46:15;;;;;;;11.07;6.77;;;;;;;21.33;55.58;100062.48;1794719;78;21030;-68
2021/09/17 08:48:43;;;;;;;12.03;6.58;;;;;;;21.33;55.99;100063.84;1798787;78;21502;-69
2021/09/17 08:51:11;;;;;;;14.33;6.97;;;;;;;21.34;56.21;100060.55;1793520;78;21117;-69
2021/09/17 08:53:39;;;;;;;11.67;6.60;;;;;;;21.36;56.44;100056.41;1799080;78;21099;-68
2021/09/17 08:56:08;;;;;;;10.70;6.27;;;;;;;21.39;56.63;100050.83;1782968;78;21066;-68
2021/09/17 08:58:35;;;;;;;9.37;6.20;;;;;;;21.43;56.74;100049.82;1790111;78;21043;-68
2021/09/17 09:01:02;;;;;;;11.17;5.83;;;;;;;21.50;56.69;100053.31;1793563;78;21559;-67
2021/09/17 09:03:32;;;;;;;9.83;6.10;;;;;;;21.56;56.66;100050.59;1793789;78;21418;-68
2021/09/17 09:06:11;;;;;;;11.07;6.13;;;;;;;21.65;56.51;100044.47;1801022;78;21994;-68
2021/09/17 09:08:40;;;;;;;11.33;6.30;;;;;;;21.74;56.38;100047.81;1787869;78;21572;-69
2021/09/17 09:11:21;;;;;;;11.37;6.17;;;;;;;21.85;56.06;100037.81;1790671;78;21124;-68
2021/09/17 09:14:05;;;;;;;10.50;6.03;;;;;;;21.97;56.02;100039.12;1790436;78;21113;-68
2021/09/17 09:16:33;;;;;;;;;;;;;;;22.11;55.82;100034.10;1796254;78;21532;-68
2021/09/17 09:19:34;;;;;;;9.27;6.03;;;;;;;22.22;54.98;100041.22;1791961;78;21807;-68
2021/09/17 09:22:09;;;;;;;15.03;6.67;;;;;;;22.30;54.82;100035.38;1800934;78;21053;-69
2021/09/17 09:24:40;;;;;;;9.20;6.37;;;;;;;22.41;54.36;100028.31;1803763;78;20979;-69
2021/09/17 09:27:16;;;;;;;12.70;5.90;;;;;;;22.51;54.09;100029.15;1787843;78;21046;-70
2021/09/17 09:29:54;;;;;;;14.73;6.50;;;;;;;22.57;53.77;100019.55;1775911;78;20987;-69
2021/09/17 09:32:33;;;;;;;10.43;5.87;;;;;;;22.66;53.74;100020.18;1799206;78;22149;-70
2021/09/17 09:35:03;;;;;;;10.00;5.97;;;;;;;22.76;53.49;100023.52;1774060;78;20990;-69
2021/09/17 09:37:33;;;;;;;;;;;;;;;22.85;53.48;100019.48;1780179;78;20983;-69
2021/09/17 09:40:05;;;;;;;12.43;5.90;;;;;;;22.97;53.37;100013.73;1794987;78;20396;-69
2021/09/17 09:42:44;;;;;;;9.47;5.90;;;;;;;23.06;52.86;100013.76;1798573;78;21525;-68
2021/09/17 09:45:24;;;;;;;10.77;5.87;;;;;;;23.17;52.86;100010.72;1799620;78;21459;-69
2021/09/17 09:47:56;;;;;;;7.90;5.50;;;;;;;23.27;52.92;100007.23;1818411;78;21081;-69
2021/09/17 09:50:25;;;;;;;;;;;;;;;23.33;52.78;100007.97;1798996;78;21066;-70
2021/09/17 09:53:03;;;;;;;11.53;6.03;;;;;;;23.37;52.66;100003.37;1790433;78;20157;-69
2021/09/17 09:55:30;;;;;;;11.50;6.27;;;;;;;23.40;52.35;100004.60;1800364;79;21035;-69
2021/09/17 09:57:58;;;;;;;12.13;7.00;;;;;;;23.41;52.45;100002.08;1782056;78;21073;-71
2021/09/17 10:00:27;;;;;;;14.13;6.87;;;;;;;23.42;52.50;99996.84;1776559;78;21018;-71
2021/09/17 10:02:55;;;;;;;12.87;6.97;;;;;;;23.43;52.47;99997.08;1797175;78;21037;-70
2021/09/17 10:05:26;;;;;;;11.00;6.10;;;;;;;23.41;52.46;99989.24;1796641;78;21085;-69
2021/09/17 10:07:53;;;;;;;10.23;5.37;;;;;;;23.42;52.31;99985.94;1796881;78;21081;-70
2021/09/17 10:10:20;;;;;;;8.20;5.30;;;;;;;23.41;51.55;99985.73;1773732;78;21112;-68
2021/09/17 10:12:49;;;;;;;12.13;5.40;;;;;;;23.38;51.55;99987.23;1770036;79;21023;-71
2021/09/17 10:15:17;;;;;;;8.87;5.33;;;;;;;23.40;51.57;99984.16;1786081;78;21158;-69
2021/09/17 10:17:50;;;;;;;8.53;5.30;;;;;;;23.40;51.57;99975.98;1778626;78;21081;-70
2021/09/17 10:20:17;;;;;;;7.83;5.23;;;;;;;23.41;51.66;99983.01;1781049;78;21042;-69
2021/09/17 10:22:44;;;;;;;9.73;5.57;;;;;;;23.44;51.72;99983.66;1791543;78;21131;-68
2021/09/17 10:25:20;;;;;;;7.93;5.53;;;;;;;23.45;51.62;99974.33;1807208;78;20927;-68
2021/09/17 10:28:08;;;;;;;9.30;5.20;;;;;;;23.49;51.19;99975.76;1792259;78;21082;-68
2021/09/17 10:30:40;;;;;;;8.20;5.20;;;;;;;23.54;51.00;99976.85;1773371;79;21022;-68
2021/09/17 10:33:25;;;;;;;7.90;5.47;;;;;;;23.59;51.30;99965.64;1793589;78;21432;-68
2021/09/17 10:35:53;;;;;;;10.37;5.57;;;;;;;23.65;51.08;99961.48;1800442;79;21976;-70
2021/09/17 10:38:32;;;;;;;11.40;5.20;;;;;;;23.72;50.28;99964.38;1770862;79;21493;-68
2021/09/17 10:41:04;;;;;;;10.00;5.47;;;;;;;23.76;50.28;99953.56;1792947;78;21533;-68
2021/09/17 10:43:46;;;;;;;10.53;5.70;;;;;;;23.82;50.01;99958.36;1776506;78;21058;-69
2021/09/17 10:46:31;;;;;;;11.03;5.62;;;;;;;23.89;49.73;99950.89;1799117;78;21039;-68
2021/09/17 10:48:58;;;;;;;11.47;5.77;;;;;;;23.97;49.28;99951.22;1793657;78;21139;-67
2021/09/17 10:51:40;;;;;;;9.50;5.30;;;;;;;24.04;49.52;99952.70;1799016;78;20920;-68
2021/09/17 10:54:13;;;;;;;13.50;5.63;;;;;;;24.11;49.09;99950.10;1788170;78;21045;-69
2021/09/17 10:56:59;;;;;;;8.30;5.10;;;;;;;24.19;48.85;99942.06;1778284;78;20971;-69
2021/09/17 10:59:30;;;;;;;9.90;4.97;;;;;;;24.28;48.70;99948.05;1774798;78;20956;-69
2021/09/17 11:02:03;;;;;;;8.40;5.10;;;;;;;24.30;48.12;99943.02;1755130;79;21069;-69
2021/09/17 11:04:32;;;;;;;9.53;5.40;;;;;;;24.29;47.68;99943.60;1794031;78;20987;-68
2021/09/17 11:07:25;;;;;;;9.10;5.10;;;;;;;24.24;47.77;99936.29;1799946;79;21419;-68
2021/09/17 11:09:55;;;;;;;9.00;5.30;;;;;;;24.21;47.90;99938.38;1787805;78;21002;-68
2021/09/17 11:12:25;;;;;;;;;;;;;;;24.18;48.12;99937.73;1783246;78;21025;-69
2021/09/17 11:15:14;;;;;;;8.20;4.97;;;;;;;24.10;47.89;99935.47;1776754;78;21106;-68
2021/09/17 11:17:56;;;;;;;8.90;5.33;;;;;;;23.97;47.64;99930.77;1790036;78;20975;-68
2021/09/17 11:20:36;;;;;;;10.57;6.43;;;;;;;23.85;47.41;99928.19;1796428;78;21030;-68
2021/09/17 11:23:09;;;;;;;9.33;5.90;;;;;;;23.69;47.66;99925.59;1790414;79;21054;-68
2021/09/17 11:25:44;;;;;;;8.43;5.73;;;;;;;23.55;47.84;99919.81;1789858;79;21035;-68
2021/09/17 11:28:28;;;;;;;10.43;5.50;;;;;;;23.45;48.13;99921.17;1795792;78;21537;-68
2021/09/17 11:31:14;;;;;;;9.63;5.90;;;;;;;23.38;48.77;99918.31;1786257;78;21038;-68
2021/09/17 11:33:57;;;;;;;9.87;5.80;;;;;;;23.30;49.31;99925.56;1785017;78;21501;-68
2021/09/17 11:37:00;;;;;;;9.77;5.33;;;;;;;23.23;50.08;99921.34;1789473;78;21102;-69
2021/09/17 11:39:38;;;;;;;10.07;5.10;;;;;;;23.14;50.04;99918.81;1778224;78;21058;-68
2021/09/17 11:42:09;;;;;;;10.73;5.63;;;;;;;23.04;50.32;99923.46;1789088;78;21925;-68
2021/09/17 11:44:51;;;;;;;14.28;6.20;;;;;;;23.00;50.57;99919.88;1793696;78;21074;-68
2021/09/17 11:47:31;;;;;;;12.80;6.70;;;;;;;22.98;50.90;99916.70;1787283;78;28514;-68
2021/09/17 11:50:02;;;;;;;10.73;5.97;;;;;;;22.97;51.04;99920.59;1779413;78;21015;-67
2021/09/17 11:52:29;;;;;;;9.55;5.78;;;;;;;23.00;51.37;99922.59;1776256;79;21074;-68